sensor_id;sensor_type;location;lat;lon;timestamp;P1;durP1;ratioP1;P2;durP2;ratioP2
31004;SDS011;17676;52.254;4.490;2022-09-13T00:01:37;17.25;;;14.00;;
31004;SDS011;17676;52.254;4.490;2022-09-13T00:04:02;16.98;;;14.95;;
31004;SDS011;17676;52.254;4.490;2022-09-13T00:06:28;16.65;;;14.88;;
31004;SDS011;17676;52.254;4.490;2022-09-13T00:08:53;16.75;;;15.02;;
31004;SDS011;17676;52.254;4.490;2022-09-13T00:11:23;19.40;;;16.30;;
31004;SDS011;17676;52.254;4.490;2022-09-13T00:13:49;20.27;;;16.23;;
31004;SDS011;17676;52.254;4.490;2022-09-13T00:16:15;19.10;;;17.15;;
31004;SDS011;17676;52.254;4.490;2022-09-13T00:18:41;19.15;;;16.75;;
31004;SDS011;17676;52.254;4.490;2022-09-13T00:21:07;19.27;;;17.05;;
31004;SDS011;17676;52.254;4.490;2022-09-13T00:23:33;19.55;;;17.35;;
31004;SDS011;17676;52.254;4.490;2022-09-13T00:26:07;17.45;;;15.70;;
31004;SDS011;17676;52.254;4.490;2022-09-13T00:28:33;19.75;;;17.42;;
31004;SDS011;17676;52.254;4.490;2022-09-13T00:30:59;21.23;;;17.00;;
31004;SDS011;17676;52.254;4.490;2022-09-13T00:33:24;21.27;;;18.85;;
31004;SDS011;17676;52.254;4.490;2022-09-13T00:35:50;20.30;;;18.35;;
31004;SDS011;17676;52.254;4.490;2022-09-13T00:38:15;30.73;;;21.13;;
31004;SDS011;17676;52.254;4.490;2022-09-13T00:40:40;19.73;;;17.65;;
31004;SDS011;17676;52.254;4.490;2022-09-13T00:43:09;26.67;;;17.25;;
31004;SDS011;17676;52.254;4.490;2022-09-13T00:45:38;18.27;;;16.38;;
31004;SDS011;17676;52.254;4.490;2022-09-13T00:48:04;18.95;;;16.13;;
31004;SDS011;17676;52.254;4.490;2022-09-13T00:50:34;16.85;;;15.10;;
31004;SDS011;17676;52.254;4.490;2022-09-13T00:53:02;19.23;;;15.27;;
31004;SDS011;17676;52.254;4.490;2022-09-13T00:55:51;13.48;;;12.23;;
31004;SDS011;17676;52.254;4.490;2022-09-13T00:58:21;15.18;;;11.07;;
31004;SDS011;17676;52.254;4.490;2022-09-13T01:00:49;15.02;;;11.13;;
31004;SDS011;17676;52.254;4.490;2022-09-13T01:03:15;11.85;;;10.48;;
31004;SDS011;17676;52.254;4.490;2022-09-13T01:05:46;13.50;;;10.00;;
31004;SDS011;17676;52.254;4.490;2022-09-13T01:08:14;10.60;;;9.40;;
31004;SDS011;17676;52.254;4.490;2022-09-13T01:10:47;9.15;;;8.27;;
31004;SDS011;17676;52.254;4.490;2022-09-13T01:13:23;10.82;;;9.15;;
31004;SDS011;17676;52.254;4.490;2022-09-13T01:15:49;11.15;;;9.23;;
31004;SDS011;17676;52.254;4.490;2022-09-13T01:18:14;12.18;;;8.85;;
31004;SDS011;17676;52.254;4.490;2022-09-13T01:28:48;10.10;;;8.10;;
31004;SDS011;17676;52.254;4.490;2022-09-13T01:31:32;10.20;;;8.60;;
31004;SDS011;17676;52.254;4.490;2022-09-13T01:47:02;10.88;;;7.70;;
31004;SDS011;17676;52.254;4.490;2022-09-13T01:51:59;10.27;;;8.23;;
31004;SDS011;17676;52.254;4.490;2022-09-13T01:57:08;13.27;;;8.48;;
31004;SDS011;17676;52.254;4.490;2022-09-13T01:59:38;14.13;;;8.73;;
31004;SDS011;17676;52.254;4.490;2022-09-13T02:04:41;13.77;;;8.75;;
31004;SDS011;17676;52.254;4.490;2022-09-13T02:07:11;10.18;;;8.93;;
31004;SDS011;17676;52.254;4.490;2022-09-13T02:09:39;14.82;;;9.30;;
31004;SDS011;17676;52.254;4.490;2022-09-13T02:12:08;10.88;;;8.18;;
31004;SDS011;17676;52.254;4.490;2022-09-13T02:14:36;9.60;;;7.95;;
31004;SDS011;17676;52.254;4.490;2022-09-13T02:17:03;10.82;;;8.50;;
31004;SDS011;17676;52.254;4.490;2022-09-13T02:19:35;17.35;;;8.38;;
31004;SDS011;17676;52.254;4.490;2022-09-13T02:22:02;10.07;;;8.25;;
31004;SDS011;17676;52.254;4.490;2022-09-13T02:24:30;11.07;;;8.02;;
31004;SDS011;17676;52.254;4.490;2022-09-13T02:26:57;12.02;;;7.75;;
31004;SDS011;17676;52.254;4.490;2022-09-13T02:29:23;8.68;;;7.55;;
31004;SDS011;17676;52.254;4.490;2022-09-13T02:31:57;10.30;;;8.07;;
31004;SDS011;17676;52.254;4.490;2022-09-13T02:34:26;14.98;;;8.63;;
31004;SDS011;17676;52.254;4.490;2022-09-13T02:36:55;12.75;;;8.55;;
31004;SDS011;17676;52.254;4.490;2022-09-13T02:39:22;11.48;;;8.77;;
31004;SDS011;17676;52.254;4.490;2022-09-13T02:44:16;12.68;;;9.02;;
31004;SDS011;17676;52.254;4.490;2022-09-13T02:49:22;13.00;;;10.23;;
31004;SDS011;17676;52.254;4.490;2022-09-13T02:54:24;17.35;;;9.90;;
31004;SDS011;17676;52.254;4.490;2022-09-13T02:56:53;12.20;;;10.85;;
31004;SDS011;17676;52.254;4.490;2022-09-13T02:59:21;10.52;;;9.52;;
31004;SDS011;17676;52.254;4.490;2022-09-13T03:01:55;13.82;;;9.45;;
31004;SDS011;17676;52.254;4.490;2022-09-13T03:04:25;19.63;;;9.50;;
31004;SDS011;17676;52.254;4.490;2022-09-13T03:06:51;13.27;;;8.98;;
31004;SDS011;17676;52.254;4.490;2022-09-13T03:09:16;9.68;;;8.70;;
31004;SDS011;17676;52.254;4.490;2022-09-13T03:21:42;11.48;;;10.38;;
31004;SDS011;17676;52.254;4.490;2022-09-13T03:29:51;14.13;;;12.63;;
31004;SDS011;17676;52.254;4.490;2022-09-13T03:34:58;15.90;;;12.50;;
31004;SDS011;17676;52.254;4.490;2022-09-13T03:37:36;13.82;;;10.70;;
31004;SDS011;17676;52.254;4.490;2022-09-13T03:40:20;11.98;;;10.50;;
31004;SDS011;17676;52.254;4.490;2022-09-13T03:45:42;12.27;;;10.98;;
31004;SDS011;17676;52.254;4.490;2022-09-13T03:48:09;11.50;;;10.43;;
31004;SDS011;17676;52.254;4.490;2022-09-13T03:50:36;13.13;;;11.55;;
31004;SDS011;17676;52.254;4.490;2022-09-13T03:53:03;14.95;;;11.55;;
31004;SDS011;17676;52.254;4.490;2022-09-13T03:55:31;12.55;;;11.15;;
31004;SDS011;17676;52.254;4.490;2022-09-13T03:57:56;12.82;;;11.63;;
31004;SDS011;17676;52.254;4.490;2022-09-13T04:00:22;11.88;;;10.63;;
31004;SDS011;17676;52.254;4.490;2022-09-13T04:02:47;14.55;;;10.50;;
31004;SDS011;17676;52.254;4.490;2022-09-13T04:05:13;12.00;;;9.50;;
31004;SDS011;17676;52.254;4.490;2022-09-13T04:07:38;11.40;;;10.38;;
31004;SDS011;17676;52.254;4.490;2022-09-13T04:10:05;11.13;;;10.15;;
31004;SDS011;17676;52.254;4.490;2022-09-13T04:12:30;11.48;;;10.25;;
31004;SDS011;17676;52.254;4.490;2022-09-13T04:14:55;9.38;;;8.45;;
31004;SDS011;17676;52.254;4.490;2022-09-13T04:17:21;10.00;;;8.27;;
31004;SDS011;17676;52.254;4.490;2022-09-13T04:19:46;8.30;;;7.47;;
31004;SDS011;17676;52.254;4.490;2022-09-13T04:22:11;8.93;;;8.20;;
31004;SDS011;17676;52.254;4.490;2022-09-13T04:24:37;7.72;;;6.97;;
31004;SDS011;17676;52.254;4.490;2022-09-13T04:27:03;7.78;;;7.00;;
31004;SDS011;17676;52.254;4.490;2022-09-13T04:29:30;8.70;;;7.32;;
31004;SDS011;17676;52.254;4.490;2022-09-13T04:31:57;8.45;;;7.07;;
31004;SDS011;17676;52.254;4.490;2022-09-13T04:34:22;7.13;;;6.53;;
31004;SDS011;17676;52.254;4.490;2022-09-13T04:36:48;7.57;;;6.88;;
31004;SDS011;17676;52.254;4.490;2022-09-13T04:39:14;6.65;;;5.75;;
31004;SDS011;17676;52.254;4.490;2022-09-13T04:41:40;7.13;;;5.10;;
31004;SDS011;17676;52.254;4.490;2022-09-13T04:44:07;3.97;;;3.50;;
31004;SDS011;17676;52.254;4.490;2022-09-13T04:46:33;4.25;;;3.05;;
31004;SDS011;17676;52.254;4.490;2022-09-13T04:48:58;4.70;;;2.90;;
31004;SDS011;17676;52.254;4.490;2022-09-13T04:51:24;6.53;;;2.25;;
31004;SDS011;17676;52.254;4.490;2022-09-13T04:53:53;4.85;;;1.95;;
31004;SDS011;17676;52.254;4.490;2022-09-13T04:56:19;3.03;;;1.15;;
31004;SDS011;17676;52.254;4.490;2022-09-13T04:58:45;1.98;;;0.73;;
31004;SDS011;17676;52.254;4.490;2022-09-13T05:01:10;2.88;;;0.90;;
31004;SDS011;17676;52.254;4.490;2022-09-13T05:03:36;1.52;;;0.50;;
31004;SDS011;17676;52.254;4.490;2022-09-13T05:06:02;2.28;;;0.60;;
31004;SDS011;17676;52.254;4.490;2022-09-13T05:08:28;2.35;;;0.70;;
31004;SDS011;17676;52.254;4.490;2022-09-13T05:10:53;2.25;;;0.40;;
31004;SDS011;17676;52.254;4.490;2022-09-13T05:13:18;1.43;;;0.50;;
31004;SDS011;17676;52.254;4.490;2022-09-13T05:15:44;3.38;;;0.55;;
31004;SDS011;17676;52.254;4.490;2022-09-13T05:18:09;1.40;;;0.60;;
31004;SDS011;17676;52.254;4.490;2022-09-13T05:20:34;2.53;;;0.60;;
31004;SDS011;17676;52.254;4.490;2022-09-13T05:22:59;2.35;;;0.60;;
31004;SDS011;17676;52.254;4.490;2022-09-13T05:25:24;1.43;;;0.43;;
31004;SDS011;17676;52.254;4.490;2022-09-13T05:27:50;4.15;;;0.60;;
31004;SDS011;17676;52.254;4.490;2022-09-13T05:30:15;5.97;;;0.50;;
31004;SDS011;17676;52.254;4.490;2022-09-13T05:32:41;3.15;;;0.52;;
31004;SDS011;17676;52.254;4.490;2022-09-13T05:35:06;1.75;;;0.50;;
31004;SDS011;17676;52.254;4.490;2022-09-13T05:37:33;2.95;;;0.63;;
31004;SDS011;17676;52.254;4.490;2022-09-13T05:39:58;4.03;;;0.60;;
31004;SDS011;17676;52.254;4.490;2022-09-13T05:42:25;3.42;;;0.73;;
31004;SDS011;17676;52.254;4.490;2022-09-13T05:44:50;12.65;;;0.93;;
31004;SDS011;17676;52.254;4.490;2022-09-13T05:47:16;10.45;;;1.13;;
31004;SDS011;17676;52.254;4.490;2022-09-13T05:49:41;9.52;;;1.33;;
31004;SDS011;17676;52.254;4.490;2022-09-13T05:52:07;2.20;;;0.73;;
31004;SDS011;17676;52.254;4.490;2022-09-13T05:54:32;4.30;;;0.80;;
31004;SDS011;17676;52.254;4.490;2022-09-13T05:56:58;6.93;;;0.75;;
31004;SDS011;17676;52.254;4.490;2022-09-13T05:59:23;5.28;;;0.75;;
31004;SDS011;17676;52.254;4.490;2022-09-13T06:01:49;9.38;;;0.80;;
31004;SDS011;17676;52.254;4.490;2022-09-13T06:04:14;3.30;;;0.70;;
31004;SDS011;17676;52.254;4.490;2022-09-13T06:06:39;6.43;;;0.60;;
31004;SDS011;17676;52.254;4.490;2022-09-13T06:09:05;4.57;;;0.68;;
31004;SDS011;17676;52.254;4.490;2022-09-13T06:11:32;4.70;;;0.75;;
31004;SDS011;17676;52.254;4.490;2022-09-13T06:13:57;5.53;;;0.70;;
31004;SDS011;17676;52.254;4.490;2022-09-13T06:16:23;8.30;;;0.90;;
31004;SDS011;17676;52.254;4.490;2022-09-13T06:18:48;4.03;;;0.60;;
31004;SDS011;17676;52.254;4.490;2022-09-13T06:21:15;7.97;;;1.15;;
31004;SDS011;17676;52.254;4.490;2022-09-13T06:23:42;4.97;;;0.70;;
31004;SDS011;17676;52.254;4.490;2022-09-13T06:26:13;5.75;;;0.55;;
31004;SDS011;17676;52.254;4.490;2022-09-13T06:28:39;4.82;;;0.60;;
31004;SDS011;17676;52.254;4.490;2022-09-13T06:31:07;5.60;;;0.60;;
31004;SDS011;17676;52.254;4.490;2022-09-13T06:33:35;1.27;;;0.40;;
31004;SDS011;17676;52.254;4.490;2022-09-13T06:36:02;3.50;;;0.40;;
31004;SDS011;17676;52.254;4.490;2022-09-13T06:38:29;3.05;;;0.40;;
31004;SDS011;17676;52.254;4.490;2022-09-13T06:40:59;2.13;;;0.30;;
31004;SDS011;17676;52.254;4.490;2022-09-13T06:43:24;1.50;;;0.30;;
31004;SDS011;17676;52.254;4.490;2022-09-13T06:45:50;4.05;;;0.40;;
31004;SDS011;17676;52.254;4.490;2022-09-13T06:48:16;3.22;;;0.45;;
31004;SDS011;17676;52.254;4.490;2022-09-13T06:50:42;2.95;;;0.30;;
31004;SDS011;17676;52.254;4.490;2022-09-13T06:53:09;1.98;;;0.30;;
31004;SDS011;17676;52.254;4.490;2022-09-13T06:55:34;2.42;;;0.40;;
31004;SDS011;17676;52.254;4.490;2022-09-13T06:57:59;2.63;;;0.27;;
31004;SDS011;17676;52.254;4.490;2022-09-13T07:00:26;0.88;;;0.20;;
31004;SDS011;17676;52.254;4.490;2022-09-13T07:02:51;1.48;;;0.30;;
31004;SDS011;17676;52.254;4.490;2022-09-13T07:05:17;3.58;;;0.40;;
31004;SDS011;17676;52.254;4.490;2022-09-13T07:07:50;3.97;;;0.40;;
31004;SDS011;17676;52.254;4.490;2022-09-13T07:10:19;7.07;;;0.65;;
31004;SDS011;17676;52.254;4.490;2022-09-13T07:12:44;2.20;;;0.30;;
31004;SDS011;17676;52.254;4.490;2022-09-13T07:15:09;4.27;;;0.27;;
31004;SDS011;17676;52.254;4.490;2022-09-13T07:17:34;4.72;;;0.20;;
31004;SDS011;17676;52.254;4.490;2022-09-13T07:20:00;4.33;;;0.20;;
31004;SDS011;17676;52.254;4.490;2022-09-13T07:22:25;3.38;;;0.20;;
31004;SDS011;17676;52.254;4.490;2022-09-13T07:24:52;2.03;;;0.30;;
31004;SDS011;17676;52.254;4.490;2022-09-13T07:27:18;2.38;;;0.55;;
31004;SDS011;17676;52.254;4.490;2022-09-13T07:29:45;2.35;;;0.38;;
31004;SDS011;17676;52.254;4.490;2022-09-13T07:32:11;1.08;;;0.20;;
31004;SDS011;17676;52.254;4.490;2022-09-13T07:34:36;3.92;;;0.22;;
31004;SDS011;17676;52.254;4.490;2022-09-13T07:37:02;4.38;;;0.57;;
31004;SDS011;17676;52.254;4.490;2022-09-13T07:39:27;3.65;;;0.20;;
31004;SDS011;17676;52.254;4.490;2022-09-13T07:41:54;0.45;;;0.10;;
31004;SDS011;17676;52.254;4.490;2022-09-13T07:44:20;2.50;;;0.20;;
31004;SDS011;17676;52.254;4.490;2022-09-13T07:46:54;2.65;;;0.30;;
31004;SDS011;17676;52.254;4.490;2022-09-13T07:49:21;6.00;;;0.20;;
31004;SDS011;17676;52.254;4.490;2022-09-13T07:51:47;3.85;;;0.20;;
31004;SDS011;17676;52.254;4.490;2022-09-13T07:54:15;2.35;;;0.10;;
31004;SDS011;17676;52.254;4.490;2022-09-13T07:56:41;4.40;;;0.17;;
31004;SDS011;17676;52.254;4.490;2022-09-13T07:59:11;4.97;;;0.13;;
31004;SDS011;17676;52.254;4.490;2022-09-13T08:01:38;3.95;;;0.20;;
31004;SDS011;17676;52.254;4.490;2022-09-13T08:04:05;3.50;;;0.28;;
31004;SDS011;17676;52.254;4.490;2022-09-13T08:06:31;4.28;;;0.10;;
31004;SDS011;17676;52.254;4.490;2022-09-13T08:08:56;5.97;;;0.20;;
31004;SDS011;17676;52.254;4.490;2022-09-13T08:11:24;3.75;;;0.20;;
31004;SDS011;17676;52.254;4.490;2022-09-13T08:13:50;3.28;;;0.10;;
31004;SDS011;17676;52.254;4.490;2022-09-13T08:16:16;2.83;;;0.13;;
31004;SDS011;17676;52.254;4.490;2022-09-13T08:18:45;4.22;;;0.10;;
31004;SDS011;17676;52.254;4.490;2022-09-13T08:21:10;5.70;;;0.10;;
31004;SDS011;17676;52.254;4.490;2022-09-13T08:23:36;4.15;;;0.28;;
31004;SDS011;17676;52.254;4.490;2022-09-13T08:26:02;4.05;;;0.20;;
31004;SDS011;17676;52.254;4.490;2022-09-13T08:28:28;3.38;;;0.10;;
31004;SDS011;17676;52.254;4.490;2022-09-13T08:30:53;2.90;;;0.20;;
31004;SDS011;17676;52.254;4.490;2022-09-13T08:33:19;1.67;;;0.10;;
31004;SDS011;17676;52.254;4.490;2022-09-13T08:35:50;4.50;;;0.20;;
31004;SDS011;17676;52.254;4.490;2022-09-13T08:38:16;3.53;;;0.20;;
31004;SDS011;17676;52.254;4.490;2022-09-13T08:40:43;4.25;;;0.20;;
31004;SDS011;17676;52.254;4.490;2022-09-13T08:45:38;3.55;;;0.20;;
31004;SDS011;17676;52.254;4.490;2022-09-13T08:48:07;3.20;;;0.20;;
31004;SDS011;17676;52.254;4.490;2022-09-13T08:50:35;6.97;;;0.20;;
31004;SDS011;17676;52.254;4.490;2022-09-13T08:55:36;2.87;;;0.17;;
31004;SDS011;17676;52.254;4.490;2022-09-13T09:00:39;4.88;;;0.20;;
31004;SDS011;17676;52.254;4.490;2022-09-13T09:03:11;3.80;;;0.30;;
31004;SDS011;17676;52.254;4.490;2022-09-13T09:05:46;3.45;;;0.22;;
31004;SDS011;17676;52.254;4.490;2022-09-13T09:08:25;4.47;;;0.15;;
31004;SDS011;17676;52.254;4.490;2022-09-13T09:10:52;7.57;;;0.20;;
31004;SDS011;17676;52.254;4.490;2022-09-13T09:13:25;3.60;;;0.35;;
31004;SDS011;17676;52.254;4.490;2022-09-13T09:15:54;6.18;;;0.28;;
31004;SDS011;17676;52.254;4.490;2022-09-13T09:18:21;2.30;;;0.20;;
31004;SDS011;17676;52.254;4.490;2022-09-13T09:20:54;2.58;;;0.22;;
31004;SDS011;17676;52.254;4.490;2022-09-13T09:23:35;4.40;;;0.20;;
31004;SDS011;17676;52.254;4.490;2022-09-13T09:26:17;1.52;;;0.20;;
31004;SDS011;17676;52.254;4.490;2022-09-13T09:28:45;3.67;;;0.15;;
31004;SDS011;17676;52.254;4.490;2022-09-13T09:31:33;3.78;;;0.13;;
31004;SDS011;17676;52.254;4.490;2022-09-13T09:34:13;1.67;;;0.10;;
31004;SDS011;17676;52.254;4.490;2022-09-13T09:39:11;5.75;;;0.30;;
31004;SDS011;17676;52.254;4.490;2022-09-13T09:41:37;3.00;;;0.20;;
31004;SDS011;17676;52.254;4.490;2022-09-13T09:44:16;3.55;;;0.10;;
31004;SDS011;17676;52.254;4.490;2022-09-13T09:46:42;3.70;;;0.25;;
31004;SDS011;17676;52.254;4.490;2022-09-13T09:51:57;2.72;;;0.10;;
31004;SDS011;17676;52.254;4.490;2022-09-13T09:54:23;5.20;;;0.20;;
31004;SDS011;17676;52.254;4.490;2022-09-13T09:56:53;2.83;;;0.20;;
31004;SDS011;17676;52.254;4.490;2022-09-13T09:59:29;2.42;;;0.20;;
31004;SDS011;17676;52.254;4.490;2022-09-13T10:01:58;2.95;;;0.10;;
31004;SDS011;17676;52.254;4.490;2022-09-13T10:04:25;3.40;;;0.10;;
31004;SDS011;17676;52.254;4.490;2022-09-13T10:06:51;2.67;;;0.10;;
31004;SDS011;17676;52.254;4.490;2022-09-13T10:09:31;1.60;;;0.10;;
31004;SDS011;17676;52.254;4.490;2022-09-13T10:11:57;2.60;;;0.20;;
31004;SDS011;17676;52.254;4.490;2022-09-13T10:17:04;4.50;;;0.17;;
31004;SDS011;17676;52.254;4.490;2022-09-13T10:19:30;2.08;;;0.10;;
31004;SDS011;17676;52.254;4.490;2022-09-13T10:22:00;5.90;;;0.17;;
31004;SDS011;17676;52.254;4.490;2022-09-13T10:24:27;3.17;;;0.20;;
31004;SDS011;17676;52.254;4.490;2022-09-13T10:26:53;4.78;;;0.08;;
31004;SDS011;17676;52.254;4.490;2022-09-13T10:29:19;1.85;;;0.10;;
31004;SDS011;17676;52.254;4.490;2022-09-13T10:31:46;2.80;;;0.10;;
31004;SDS011;17676;52.254;4.490;2022-09-13T10:34:16;1.38;;;0.10;;
31004;SDS011;17676;52.254;4.490;2022-09-13T10:36:50;1.00;;;0.10;;
31004;SDS011;17676;52.254;4.490;2022-09-13T10:39:18;4.03;;;0.15;;
31004;SDS011;17676;52.254;4.490;2022-09-13T10:42:00;3.28;;;0.10;;
31004;SDS011;17676;52.254;4.490;2022-09-13T10:44:39;3.60;;;0.20;;
31004;SDS011;17676;52.254;4.490;2022-09-13T10:47:05;3.67;;;0.10;;
31004;SDS011;17676;52.254;4.490;2022-09-13T10:54:46;1.02;;;0.10;;
31004;SDS011;17676;52.254;4.490;2022-09-13T10:57:31;4.70;;;0.10;;
31004;SDS011;17676;52.254;4.490;2022-09-13T11:00:01;1.80;;;0.17;;
31004;SDS011;17676;52.254;4.490;2022-09-13T11:07:36;3.40;;;0.25;;
31004;SDS011;17676;52.254;4.490;2022-09-13T11:10:11;2.85;;;0.25;;
31004;SDS011;17676;52.254;4.490;2022-09-13T11:15:35;5.45;;;0.10;;
31004;SDS011;17676;52.254;4.490;2022-09-13T11:23:13;1.88;;;0.20;;
31004;SDS011;17676;52.254;4.490;2022-09-13T11:46:34;3.10;;;0.10;;
31004;SDS011;17676;52.254;4.490;2022-09-13T11:49:13;2.00;;;0.10;;
31004;SDS011;17676;52.254;4.490;2022-09-13T11:56:45;2.88;;;0.10;;
31004;SDS011;17676;52.254;4.490;2022-09-13T12:01:57;4.78;;;0.10;;
31004;SDS011;17676;52.254;4.490;2022-09-13T12:07:24;4.00;;;0.20;;
31004;SDS011;17676;52.254;4.490;2022-09-13T12:09:59;2.63;;;0.10;;
31004;SDS011;17676;52.254;4.490;2022-09-13T12:12:29;2.45;;;0.10;;
31004;SDS011;17676;52.254;4.490;2022-09-13T12:14:59;3.22;;;0.20;;
31004;SDS011;17676;52.254;4.490;2022-09-13T12:17:30;3.35;;;0.10;;
31004;SDS011;17676;52.254;4.490;2022-09-13T12:19:59;5.68;;;0.10;;
31004;SDS011;17676;52.254;4.490;2022-09-13T12:22:26;3.45;;;0.17;;
31004;SDS011;17676;52.254;4.490;2022-09-13T12:24:53;3.40;;;0.15;;
31004;SDS011;17676;52.254;4.490;2022-09-13T12:29:49;1.50;;;0.10;;
31004;SDS011;17676;52.254;4.490;2022-09-13T12:32:16;3.83;;;0.20;;
31004;SDS011;17676;52.254;4.490;2022-09-13T12:42:39;2.58;;;0.10;;
31004;SDS011;17676;52.254;4.490;2022-09-13T12:53:29;5.28;;;0.10;;
31004;SDS011;17676;52.254;4.490;2022-09-13T13:01:25;3.50;;;0.20;;
31004;SDS011;17676;52.254;4.490;2022-09-13T13:08:52;9.65;;;0.17;;
31004;SDS011;17676;52.254;4.490;2022-09-13T13:11:28;6.57;;;0.10;;
31004;SDS011;17676;52.254;4.490;2022-09-13T13:14:01;4.10;;;0.28;;
31004;SDS011;17676;52.254;4.490;2022-09-13T13:19:40;4.53;;;0.10;;
31004;SDS011;17676;52.254;4.490;2022-09-13T13:41:07;4.60;;;0.13;;
31004;SDS011;17676;52.254;4.490;2022-09-13T13:43:33;5.85;;;0.30;;
31004;SDS011;17676;52.254;4.490;2022-09-13T13:48:38;4.80;;;0.20;;
31004;SDS011;17676;52.254;4.490;2022-09-13T13:53:38;4.63;;;0.30;;
31004;SDS011;17676;52.254;4.490;2022-09-13T13:58:48;4.72;;;0.10;;
31004;SDS011;17676;52.254;4.490;2022-09-13T14:01:20;1.52;;;0.10;;
31004;SDS011;17676;52.254;4.490;2022-09-13T14:03:51;4.93;;;0.17;;
31004;SDS011;17676;52.254;4.490;2022-09-13T14:08:58;1.55;;;0.10;;
31004;SDS011;17676;52.254;4.490;2022-09-13T14:21:40;1.13;;;0.10;;
31004;SDS011;17676;52.254;4.490;2022-09-13T14:24:07;2.28;;;0.10;;
31004;SDS011;17676;52.254;4.490;2022-09-13T14:26:34;2.67;;;0.20;;
31004;SDS011;17676;52.254;4.490;2022-09-13T14:28:59;5.07;;;0.45;;
31004;SDS011;17676;52.254;4.490;2022-09-13T14:31:24;1.65;;;0.20;;
31004;SDS011;17676;52.254;4.490;2022-09-13T14:33:50;2.67;;;0.20;;
31004;SDS011;17676;52.254;4.490;2022-09-13T14:36:20;3.20;;;0.10;;
31004;SDS011;17676;52.254;4.490;2022-09-13T14:38:48;7.82;;;0.10;;
31004;SDS011;17676;52.254;4.490;2022-09-13T14:41:15;6.38;;;0.20;;
31004;SDS011;17676;52.254;4.490;2022-09-13T14:43:40;6.28;;;0.20;;
31004;SDS011;17676;52.254;4.490;2022-09-13T14:48:42;6.85;;;0.10;;
31004;SDS011;17676;52.254;4.490;2022-09-13T14:51:13;3.40;;;0.10;;
31004;SDS011;17676;52.254;4.490;2022-09-13T14:53:45;6.25;;;0.20;;
31004;SDS011;17676;52.254;4.490;2022-09-13T14:56:15;2.08;;;0.30;;
31004;SDS011;17676;52.254;4.490;2022-09-13T14:58:49;4.07;;;0.20;;
31004;SDS011;17676;52.254;4.490;2022-09-13T15:01:18;7.93;;;0.20;;
31004;SDS011;17676;52.254;4.490;2022-09-13T15:03:44;3.45;;;0.10;;
31004;SDS011;17676;52.254;4.490;2022-09-13T15:06:21;1.70;;;0.10;;
31004;SDS011;17676;52.254;4.490;2022-09-13T15:08:47;2.00;;;0.10;;
31004;SDS011;17676;52.254;4.490;2022-09-13T15:11:15;3.05;;;0.25;;
31004;SDS011;17676;52.254;4.490;2022-09-13T15:13:40;6.40;;;0.20;;
31004;SDS011;17676;52.254;4.490;2022-09-13T15:19:13;3.25;;;0.10;;
31004;SDS011;17676;52.254;4.490;2022-09-13T15:21:41;3.45;;;0.20;;
31004;SDS011;17676;52.254;4.490;2022-09-13T15:24:13;4.47;;;0.10;;
31004;SDS011;17676;52.254;4.490;2022-09-13T15:26:42;6.55;;;0.20;;
31004;SDS011;17676;52.254;4.490;2022-09-13T15:29:15;3.95;;;0.10;;
31004;SDS011;17676;52.254;4.490;2022-09-13T15:31:40;4.25;;;0.20;;
31004;SDS011;17676;52.254;4.490;2022-09-13T15:36:44;2.65;;;0.10;;
31004;SDS011;17676;52.254;4.490;2022-09-13T15:39:20;4.65;;;0.15;;
31004;SDS011;17676;52.254;4.490;2022-09-13T15:41:59;5.82;;;0.40;;
31004;SDS011;17676;52.254;4.490;2022-09-13T15:44:25;4.38;;;0.17;;
31004;SDS011;17676;52.254;4.490;2022-09-13T15:46:54;3.60;;;0.60;;
31004;SDS011;17676;52.254;4.490;2022-09-13T15:49:21;8.18;;;0.20;;
31004;SDS011;17676;52.254;4.490;2022-09-13T15:51:53;3.25;;;0.10;;
31004;SDS011;17676;52.254;4.490;2022-09-13T15:54:18;6.75;;;0.20;;
31004;SDS011;17676;52.254;4.490;2022-09-13T15:56:46;3.20;;;0.13;;
31004;SDS011;17676;52.254;4.490;2022-09-13T15:59:15;7.03;;;0.28;;
31004;SDS011;17676;52.254;4.490;2022-09-13T16:01:41;4.63;;;0.28;;
31004;SDS011;17676;52.254;4.490;2022-09-13T16:04:07;7.35;;;0.20;;
31004;SDS011;17676;52.254;4.490;2022-09-13T16:06:32;1.92;;;0.10;;
31004;SDS011;17676;52.254;4.490;2022-09-13T16:08:57;4.50;;;0.20;;
31004;SDS011;17676;52.254;4.490;2022-09-13T16:11:24;5.95;;;0.20;;
31004;SDS011;17676;52.254;4.490;2022-09-13T16:13:49;6.07;;;0.20;;
31004;SDS011;17676;52.254;4.490;2022-09-13T16:16:14;5.17;;;0.20;;
31004;SDS011;17676;52.254;4.490;2022-09-13T16:18:39;3.00;;;0.20;;
31004;SDS011;17676;52.254;4.490;2022-09-13T16:21:05;6.60;;;0.30;;
31004;SDS011;17676;52.254;4.490;2022-09-13T16:23:30;5.63;;;0.20;;
31004;SDS011;17676;52.254;4.490;2022-09-13T16:25:58;7.00;;;0.28;;
31004;SDS011;17676;52.254;4.490;2022-09-13T16:28:23;7.30;;;0.20;;
31004;SDS011;17676;52.254;4.490;2022-09-13T16:30:49;3.45;;;0.20;;
31004;SDS011;17676;52.254;4.490;2022-09-13T16:33:14;4.00;;;0.20;;
31004;SDS011;17676;52.254;4.490;2022-09-13T16:35:40;6.05;;;0.20;;
31004;SDS011;17676;52.254;4.490;2022-09-13T16:38:05;6.00;;;0.10;;
31004;SDS011;17676;52.254;4.490;2022-09-13T16:40:30;4.00;;;0.10;;
31004;SDS011;17676;52.254;4.490;2022-09-13T16:42:56;3.05;;;0.30;;
31004;SDS011;17676;52.254;4.490;2022-09-13T16:45:22;7.32;;;0.20;;
31004;SDS011;17676;52.254;4.490;2022-09-13T16:47:47;4.95;;;0.35;;
31004;SDS011;17676;52.254;4.490;2022-09-13T16:50:13;3.03;;;0.13;;
31004;SDS011;17676;52.254;4.490;2022-09-13T16:52:38;8.30;;;0.20;;
31004;SDS011;17676;52.254;4.490;2022-09-13T16:55:04;8.30;;;0.35;;
31004;SDS011;17676;52.254;4.490;2022-09-13T16:57:29;7.07;;;0.30;;
31004;SDS011;17676;52.254;4.490;2022-09-13T16:59:55;13.02;;;0.50;;
31004;SDS011;17676;52.254;4.490;2022-09-13T17:02:22;9.65;;;1.00;;
31004;SDS011;17676;52.254;4.490;2022-09-13T17:04:48;6.45;;;0.20;;
31004;SDS011;17676;52.254;4.490;2022-09-13T17:07:13;3.80;;;0.20;;
31004;SDS011;17676;52.254;4.490;2022-09-13T17:09:38;4.00;;;0.20;;
31004;SDS011;17676;52.254;4.490;2022-09-13T17:12:05;5.18;;;0.63;;
31004;SDS011;17676;52.254;4.490;2022-09-13T17:14:30;6.28;;;0.20;;
31004;SDS011;17676;52.254;4.490;2022-09-13T17:16:57;4.70;;;0.20;;
31004;SDS011;17676;52.254;4.490;2022-09-13T17:19:23;10.03;;;0.30;;
31004;SDS011;17676;52.254;4.490;2022-09-13T17:21:49;5.00;;;0.40;;
31004;SDS011;17676;52.254;4.490;2022-09-13T17:24:14;7.28;;;0.25;;
31004;SDS011;17676;52.254;4.490;2022-09-13T17:26:40;5.50;;;0.30;;
31004;SDS011;17676;52.254;4.490;2022-09-13T17:29:06;5.53;;;0.20;;
31004;SDS011;17676;52.254;4.490;2022-09-13T17:31:31;6.15;;;0.40;;
31004;SDS011;17676;52.254;4.490;2022-09-13T17:33:56;3.93;;;0.20;;
31004;SDS011;17676;52.254;4.490;2022-09-13T17:36:21;14.10;;;0.70;;
31004;SDS011;17676;52.254;4.490;2022-09-13T17:38:46;6.32;;;0.38;;
31004;SDS011;17676;52.254;4.490;2022-09-13T17:41:13;5.50;;;0.30;;
31004;SDS011;17676;52.254;4.490;2022-09-13T17:43:40;7.10;;;0.20;;
31004;SDS011;17676;52.254;4.490;2022-09-13T17:46:12;4.25;;;0.32;;
31004;SDS011;17676;52.254;4.490;2022-09-13T17:48:38;6.93;;;0.30;;
31004;SDS011;17676;52.254;4.490;2022-09-13T17:51:05;8.95;;;0.38;;
31004;SDS011;17676;52.254;4.490;2022-09-13T17:53:30;8.52;;;0.40;;
31004;SDS011;17676;52.254;4.490;2022-09-13T17:55:56;4.20;;;0.30;;
31004;SDS011;17676;52.254;4.490;2022-09-13T17:58:24;5.30;;;0.47;;
31004;SDS011;17676;52.254;4.490;2022-09-13T18:00:51;3.70;;;0.35;;
31004;SDS011;17676;52.254;4.490;2022-09-13T18:03:23;6.85;;;0.30;;
31004;SDS011;17676;52.254;4.490;2022-09-13T18:05:53;8.52;;;0.20;;
31004;SDS011;17676;52.254;4.490;2022-09-13T18:08:18;7.85;;;0.22;;
31004;SDS011;17676;52.254;4.490;2022-09-13T18:10:43;7.03;;;0.40;;